sensor_id;sensor_type;location;lat;lon;timestamp;P1;P2;P0
49708;PMS5003;35601;55.902;13.606;2023-02-08T00:00:15;59;44;
49708;PMS5003;35601;55.902;13.606;2023-02-08T00:02:40;61;52;
49708;PMS5003;35601;55.902;13.606;2023-02-08T00:05:06;63;53;
49708;PMS5003;35601;55.902;13.606;2023-02-08T00:07:31;65;55;
49708;PMS5003;35601;55.902;13.606;2023-02-08T00:09:56;65;54;
49708;PMS5003;35601;55.902;13.606;2023-02-08T00:12:22;87;67;
49708;PMS5003;35601;55.902;13.606;2023-02-08T00:14:47;57;52;
49708;PMS5003;35601;55.902;13.606;2023-02-08T00:17:13;58;49;
49708;PMS5003;35601;55.902;13.606;2023-02-08T00:19:38;59;51;
49708;PMS5003;35601;55.902;13.606;2023-02-08T00:22:03;58;52;
49708;PMS5003;35601;55.902;13.606;2023-02-08T00:24:29;64;54;
49708;PMS5003;35601;55.902;13.606;2023-02-08T00:26:54;63;52;
49708;PMS5003;35601;55.902;13.606;2023-02-08T00:29:20;62;52;
49708;PMS5003;35601;55.902;13.606;2023-02-08T00:31:45;57;47;
49708;PMS5003;35601;55.902;13.606;2023-02-08T00:34:11;46;38;
49708;PMS5003;35601;55.902;13.606;2023-02-08T00:36:36;56;45;
49708;PMS5003;35601;55.902;13.606;2023-02-08T00:39:01;63;52;
49708;PMS5003;35601;55.902;13.606;2023-02-08T00:41:27;52;47;
49708;PMS5003;35601;55.902;13.606;2023-02-08T00:43:52;69;58;
49708;PMS5003;35601;55.902;13.606;2023-02-08T00:46:17;57;48;
49708;PMS5003;35601;55.902;13.606;2023-02-08T00:48:43;51;43;
49708;PMS5003;35601;55.902;13.606;2023-02-08T00:51:09;59;48;
49708;PMS5003;35601;55.902;13.606;2023-02-08T00:53:34;57;49;
49708;PMS5003;35601;55.902;13.606;2023-02-08T00:55:59;60;47;
49708;PMS5003;35601;55.902;13.606;2023-02-08T00:58:25;56;49;
49708;PMS5003;35601;55.902;13.606;2023-02-08T01:00:50;52;47;
49708;PMS5003;35601;55.902;13.606;2023-02-08T01:03:16;62;51;
49708;PMS5003;35601;55.902;13.606;2023-02-08T01:05:41;51;45;
49708;PMS5003;35601;55.902;13.606;2023-02-08T01:08:07;71;52;
49708;PMS5003;35601;55.902;13.606;2023-02-08T01:10:32;61;45;
49708;PMS5003;35601;55.902;13.606;2023-02-08T01:12:58;65;54;
49708;PMS5003;35601;55.902;13.606;2023-02-08T01:15:23;58;49;
49708;PMS5003;35601;55.902;13.606;2023-02-08T01:17:52;57;48;
49708;PMS5003;35601;55.902;13.606;2023-02-08T01:20:14;60;50;
49708;PMS5003;35601;55.902;13.606;2023-02-08T01:22:40;61;51;
49708;PMS5003;35601;55.902;13.606;2023-02-08T01:25:06;61;46;
49708;PMS5003;35601;55.902;13.606;2023-02-08T01:27:31;67;55;
49708;PMS5003;35601;55.902;13.606;2023-02-08T01:29:57;65;52;
49708;PMS5003;35601;55.902;13.606;2023-02-08T01:32:22;71;57;
49708;PMS5003;35601;55.902;13.606;2023-02-08T01:34:47;63;54;
49708;PMS5003;35601;55.902;13.606;2023-02-08T01:37:13;69;55;
49708;PMS5003;35601;55.902;13.606;2023-02-08T01:39:38;62;46;
49708;PMS5003;35601;55.902;13.606;2023-02-08T01:42:04;64;55;
49708;PMS5003;35601;55.902;13.606;2023-02-08T01:46:55;65;59;
49708;PMS5003;35601;55.902;13.606;2023-02-08T01:49:22;76;60;
49708;PMS5003;35601;55.902;13.606;2023-02-08T01:51:46;74;59;
49708;PMS5003;35601;55.902;13.606;2023-02-08T01:54:11;65;55;
49708;PMS5003;35601;55.902;13.606;2023-02-08T01:56:38;61;52;
49708;PMS5003;35601;55.902;13.606;2023-02-08T01:59:04;69;56;
49708;PMS5003;35601;55.902;13.606;2023-02-08T02:01:28;65;56;
49708;PMS5003;35601;55.902;13.606;2023-02-08T02:03:53;68;52;
49708;PMS5003;35601;55.902;13.606;2023-02-08T02:06:20;69;54;
49708;PMS5003;35601;55.902;13.606;2023-02-08T02:08:46;67;53;
49708;PMS5003;35601;55.902;13.606;2023-02-08T02:11:11;66;58;
49708;PMS5003;35601;55.902;13.606;2023-02-08T02:13:36;71;63;
49708;PMS5003;35601;55.902;13.606;2023-02-08T02:16:02;68;59;
49708;PMS5003;35601;55.902;13.606;2023-02-08T02:18:28;72;57;
49708;PMS5003;35601;55.902;13.606;2023-02-08T02:21:02;72;58;
49708;PMS5003;35601;55.902;13.606;2023-02-08T02:23:29;78;63;
49708;PMS5003;35601;55.902;13.606;2023-02-08T02:25:48;75;60;
49708;PMS5003;35601;55.902;13.606;2023-02-08T02:30:40;78;62;
49708;PMS5003;35601;55.902;13.606;2023-02-08T02:33:03;70;59;
49708;PMS5003;35601;55.902;13.606;2023-02-08T02:35:26;86;63;
49708;PMS5003;35601;55.902;13.606;2023-02-08T02:37:52;60;52;
49708;PMS5003;35601;55.902;13.606;2023-02-08T02:40:17;74;59;
49708;PMS5003;35601;55.902;13.606;2023-02-08T02:42:45;71;57;
49708;PMS5003;35601;55.902;13.606;2023-02-08T02:45:08;76;67;
49708;PMS5003;35601;55.902;13.606;2023-02-08T02:47:35;76;57;
49708;PMS5003;35601;55.902;13.606;2023-02-08T02:50:00;80;57;
49708;PMS5003;35601;55.902;13.606;2023-02-08T02:52:23;74;61;
49708;PMS5003;35601;55.902;13.606;2023-02-08T02:54:48;91;63;
49708;PMS5003;35601;55.902;13.606;2023-02-08T02:57:14;75;64;
49708;PMS5003;35601;55.902;13.606;2023-02-08T02:59:39;67;57;
49708;PMS5003;35601;55.902;13.606;2023-02-08T03:02:04;84;65;
49708;PMS5003;35601;55.902;13.606;2023-02-08T03:06:58;68;57;
49708;PMS5003;35601;55.902;13.606;2023-02-08T03:09:25;83;62;
49708;PMS5003;35601;55.902;13.606;2023-02-08T03:11:48;82;66;
49708;PMS5003;35601;55.902;13.606;2023-02-08T03:14:16;76;59;
49708;PMS5003;35601;55.902;13.606;2023-02-08T03:16:41;81;67;
49708;PMS5003;35601;55.902;13.606;2023-02-08T03:19:05;89;68;
49708;PMS5003;35601;55.902;13.606;2023-02-08T03:21:31;76;66;
49708;PMS5003;35601;55.902;13.606;2023-02-08T03:23:55;86;66;
49708;PMS5003;35601;55.902;13.606;2023-02-08T03:26:19;82;65;
49708;PMS5003;35601;55.902;13.606;2023-02-08T03:28:45;77;61;
49708;PMS5003;35601;55.902;13.606;2023-02-08T03:31:10;71;58;
49708;PMS5003;35601;55.902;13.606;2023-02-08T03:33:36;65;58;
49708;PMS5003;35601;55.902;13.606;2023-02-08T03:36:02;75;59;
49708;PMS5003;35601;55.902;13.606;2023-02-08T03:38:26;78;65;
49708;PMS5003;35601;55.902;13.606;2023-02-08T03:40:51;89;68;
49708;PMS5003;35601;55.902;13.606;2023-02-08T03:43:17;85;68;
49708;PMS5003;35601;55.902;13.606;2023-02-08T03:45:42;78;57;
49708;PMS5003;35601;55.902;13.606;2023-02-08T03:48:07;85;64;
49708;PMS5003;35601;55.902;13.606;2023-02-08T03:50:33;84;60;
49708;PMS5003;35601;55.902;13.606;2023-02-08T03:52:57;76;65;
49708;PMS5003;35601;55.902;13.606;2023-02-08T03:55:24;67;60;
49708;PMS5003;35601;55.902;13.606;2023-02-08T03:57:50;78;50;
49708;PMS5003;35601;55.902;13.606;2023-02-08T04:00:15;77;62;
49708;PMS5003;35601;55.902;13.606;2023-02-08T04:02:42;77;59;
49708;PMS5003;35601;55.902;13.606;2023-02-08T04:05:06;81;65;
49708;PMS5003;35601;55.902;13.606;2023-02-08T04:07:31;82;66;
49708;PMS5003;35601;55.902;13.606;2023-02-08T04:09:57;85;63;
49708;PMS5003;35601;55.902;13.606;2023-02-08T04:12:22;77;63;
49708;PMS5003;35601;55.902;13.606;2023-02-08T04:14:48;78;61;
49708;PMS5003;35601;55.902;13.606;2023-02-08T04:17:13;79;56;
49708;PMS5003;35601;55.902;13.606;2023-02-08T04:19:39;66;55;
49708;PMS5003;35601;55.902;13.606;2023-02-08T04:22:04;70;62;
49708;PMS5003;35601;55.902;13.606;2023-02-08T04:24:29;78;60;
49708;PMS5003;35601;55.902;13.606;2023-02-08T04:26:54;68;56;
49708;PMS5003;35601;55.902;13.606;2023-02-08T04:29:20;79;59;
49708;PMS5003;35601;55.902;13.606;2023-02-08T04:31:45;83;66;
49708;PMS5003;35601;55.902;13.606;2023-02-08T04:34:10;75;62;
49708;PMS5003;35601;55.902;13.606;2023-02-08T04:36:36;73;54;
49708;PMS5003;35601;55.902;13.606;2023-02-08T04:39:02;72;65;
49708;PMS5003;35601;55.902;13.606;2023-02-08T04:41:27;78;57;
49708;PMS5003;35601;55.902;13.606;2023-02-08T04:43:52;81;69;
49708;PMS5003;35601;55.902;13.606;2023-02-08T04:46:18;71;59;
49708;PMS5003;35601;55.902;13.606;2023-02-08T04:48:44;71;56;
49708;PMS5003;35601;55.902;13.606;2023-02-08T04:51:09;73;57;
49708;PMS5003;35601;55.902;13.606;2023-02-08T04:53:35;93;62;
49708;PMS5003;35601;55.902;13.606;2023-02-08T04:56:00;69;58;
49708;PMS5003;35601;55.902;13.606;2023-02-08T04:58:26;78;62;
49708;PMS5003;35601;55.902;13.606;2023-02-08T05:00:51;92;63;
49708;PMS5003;35601;55.902;13.606;2023-02-08T05:03:16;91;69;
49708;PMS5003;35601;55.902;13.606;2023-02-08T05:05:42;73;62;
49708;PMS5003;35601;55.902;13.606;2023-02-08T05:08:08;85;66;
49708;PMS5003;35601;55.902;13.606;2023-02-08T05:10:33;78;64;
49708;PMS5003;35601;55.902;13.606;2023-02-08T05:12:59;76;70;
49708;PMS5003;35601;55.902;13.606;2023-02-08T05:15:24;88;68;
49708;PMS5003;35601;55.902;13.606;2023-02-08T05:17:49;86;68;
49708;PMS5003;35601;55.902;13.606;2023-02-08T05:20:15;89;68;
49708;PMS5003;35601;55.902;13.606;2023-02-08T05:22:40;70;61;
49708;PMS5003;35601;55.902;13.606;2023-02-08T05:25:05;86;71;
49708;PMS5003;35601;55.902;13.606;2023-02-08T05:27:32;79;64;
49708;PMS5003;35601;55.902;13.606;2023-02-08T05:29:57;88;69;
49708;PMS5003;35601;55.902;13.606;2023-02-08T05:32:22;86;69;
49708;PMS5003;35601;55.902;13.606;2023-02-08T05:34:48;83;64;
49708;PMS5003;35601;55.902;13.606;2023-02-08T05:37:13;85;67;
49708;PMS5003;35601;55.902;13.606;2023-02-08T05:39:39;88;68;
49708;PMS5003;35601;55.902;13.606;2023-02-08T05:42:05;79;59;
49708;PMS5003;35601;55.902;13.606;2023-02-08T05:44:30;87;67;
49708;PMS5003;35601;55.902;13.606;2023-02-08T05:46:56;64;57;
49708;PMS5003;35601;55.902;13.606;2023-02-08T05:49:22;87;68;
49708;PMS5003;35601;55.902;13.606;2023-02-08T05:51:47;87;66;
49708;PMS5003;35601;55.902;13.606;2023-02-08T05:54:12;78;65;
49708;PMS5003;35601;55.902;13.606;2023-02-08T05:56:37;90;72;
49708;PMS5003;35601;55.902;13.606;2023-02-08T05:59:03;81;70;
49708;PMS5003;35601;55.902;13.606;2023-02-08T06:01:29;75;62;
49708;PMS5003;35601;55.902;13.606;2023-02-08T06:03:54;80;69;
49708;PMS5003;35601;55.902;13.606;2023-02-08T06:06:20;69;54;
49708;PMS5003;35601;55.902;13.606;2023-02-08T06:08:46;68;56;
49708;PMS5003;35601;55.902;13.606;2023-02-08T06:11:11;79;65;
49708;PMS5003;35601;55.902;13.606;2023-02-08T06:13:37;84;70;
49708;PMS5003;35601;55.902;13.606;2023-02-08T06:16:02;98;80;
49708;PMS5003;35601;55.902;13.606;2023-02-08T06:18:27;101;82;
49708;PMS5003;35601;55.902;13.606;2023-02-08T06:20:53;85;69;
49708;PMS5003;35601;55.902;13.606;2023-02-08T06:23:18;88;73;
49708;PMS5003;35601;55.902;13.606;2023-02-08T06:25:43;104;83;
49708;PMS5003;35601;55.902;13.606;2023-02-08T06:28:09;85;75;
49708;PMS5003;35601;55.902;13.606;2023-02-08T06:30:34;95;76;
49708;PMS5003;35601;55.902;13.606;2023-02-08T06:32:59;89;75;
49708;PMS5003;35601;55.902;13.606;2023-02-08T06:35:25;97;77;
49708;PMS5003;35601;55.902;13.606;2023-02-08T06:37:50;88;75;
49708;PMS5003;35601;55.902;13.606;2023-02-08T06:40:16;86;66;
49708;PMS5003;35601;55.902;13.606;2023-02-08T06:42:41;91;74;
49708;PMS5003;35601;55.902;13.606;2023-02-08T06:45:06;93;68;
49708;PMS5003;35601;55.902;13.606;2023-02-08T06:47:31;76;62;
49708;PMS5003;35601;55.902;13.606;2023-02-08T06:49:56;87;76;
49708;PMS5003;35601;55.902;13.606;2023-02-08T06:52:22;78;68;
49708;PMS5003;35601;55.902;13.606;2023-02-08T06:54:48;91;69;
49708;PMS5003;35601;55.902;13.606;2023-02-08T06:57:14;78;68;
49708;PMS5003;35601;55.902;13.606;2023-02-08T06:59:39;100;77;
49708;PMS5003;35601;55.902;13.606;2023-02-08T07:02:05;85;70;
49708;PMS5003;35601;55.902;13.606;2023-02-08T07:04:31;84;68;
49708;PMS5003;35601;55.902;13.606;2023-02-08T07:06:56;85;70;
49708;PMS5003;35601;55.902;13.606;2023-02-08T07:09:22;90;72;
49708;PMS5003;35601;55.902;13.606;2023-02-08T07:11:47;97;71;
49708;PMS5003;35601;55.902;13.606;2023-02-08T07:14:14;91;74;
49708;PMS5003;35601;55.902;13.606;2023-02-08T07:16:39;99;76;
49708;PMS5003;35601;55.902;13.606;2023-02-08T07:19:05;89;73;
49708;PMS5003;35601;55.902;13.606;2023-02-08T07:21:30;100;75;
49708;PMS5003;35601;55.902;13.606;2023-02-08T07:23:55;88;73;
49708;PMS5003;35601;55.902;13.606;2023-02-08T07:26:21;98;83;
49708;PMS5003;35601;55.902;13.606;2023-02-08T07:28:46;101;84;
49708;PMS5003;35601;55.902;13.606;2023-02-08T07:31:12;104;74;
49708;PMS5003;35601;55.902;13.606;2023-02-08T07:33:36;106;80;
49708;PMS5003;35601;55.902;13.606;2023-02-08T07:36:02;83;68;
49708;PMS5003;35601;55.902;13.606;2023-02-08T07:38:27;100;75;
49708;PMS5003;35601;55.902;13.606;2023-02-08T07:43:18;79;66;
49708;PMS5003;35601;55.902;13.606;2023-02-08T07:45:43;90;80;
49708;PMS5003;35601;55.902;13.606;2023-02-08T07:48:08;90;69;
49708;PMS5003;35601;55.902;13.606;2023-02-08T07:50:34;99;73;
49708;PMS5003;35601;55.902;13.606;2023-02-08T07:52:59;88;70;
49708;PMS5003;35601;55.902;13.606;2023-02-08T07:55:25;95;67;
49708;PMS5003;35601;55.902;13.606;2023-02-08T07:57:51;96;68;
49708;PMS5003;35601;55.902;13.606;2023-02-08T08:00:17;89;73;
49708;PMS5003;35601;55.902;13.606;2023-02-08T08:02:41;90;76;
49708;PMS5003;35601;55.902;13.606;2023-02-08T08:05:06;106;73;
49708;PMS5003;35601;55.902;13.606;2023-02-08T08:07:32;84;67;
49708;PMS5003;35601;55.902;13.606;2023-02-08T08:09:57;92;70;
49708;PMS5003;35601;55.902;13.606;2023-02-08T08:12:23;78;70;
49708;PMS5003;35601;55.902;13.606;2023-02-08T08:14:48;96;71;
49708;PMS5003;35601;55.902;13.606;2023-02-08T08:17:13;86;68;
49708;PMS5003;35601;55.902;13.606;2023-02-08T08:19:38;96;77;
49708;PMS5003;35601;55.902;13.606;2023-02-08T08:22:04;70;61;
49708;PMS5003;35601;55.902;13.606;2023-02-08T08:24:29;81;64;
49708;PMS5003;35601;55.902;13.606;2023-02-08T08:26:55;90;71;
49708;PMS5003;35601;55.902;13.606;2023-02-08T08:29:21;89;71;
49708;PMS5003;35601;55.902;13.606;2023-02-08T08:31:46;86;69;
49708;PMS5003;35601;55.902;13.606;2023-02-08T08:34:12;88;70;
49708;PMS5003;35601;55.902;13.606;2023-02-08T08:36:37;94;65;
49708;PMS5003;35601;55.902;13.606;2023-02-08T08:39:02;89;74;
49708;PMS5003;35601;55.902;13.606;2023-02-08T08:41:28;79;64;
49708;PMS5003;35601;55.902;13.606;2023-02-08T08:43:53;85;69;
49708;PMS5003;35601;55.902;13.606;2023-02-08T08:46:19;82;68;
49708;PMS5003;35601;55.902;13.606;2023-02-08T08:48:44;81;63;
49708;PMS5003;35601;55.902;13.606;2023-02-08T08:51:09;99;77;
49708;PMS5003;35601;55.902;13.606;2023-02-08T08:53:35;88;63;
49708;PMS5003;35601;55.902;13.606;2023-02-08T08:56:01;84;66;
49708;PMS5003;35601;55.902;13.606;2023-02-08T08:58:26;87;62;
49708;PMS5003;35601;55.902;13.606;2023-02-08T09:00:53;80;61;
49708;PMS5003;35601;55.902;13.606;2023-02-08T09:03:18;86;62;
49708;PMS5003;35601;55.902;13.606;2023-02-08T09:05:43;79;67;
49708;PMS5003;35601;55.902;13.606;2023-02-08T09:08:08;76;62;
49708;PMS5003;35601;55.902;13.606;2023-02-08T09:10:34;78;61;
49708;PMS5003;35601;55.902;13.606;2023-02-08T09:12:59;74;53;
49708;PMS5003;35601;55.902;13.606;2023-02-08T09:15:25;83;65;
49708;PMS5003;35601;55.902;13.606;2023-02-08T09:17:50;91;73;
49708;PMS5003;35601;55.902;13.606;2023-02-08T09:20:16;73;63;
49708;PMS5003;35601;55.902;13.606;2023-02-08T09:22:41;84;72;
49708;PMS5003;35601;55.902;13.606;2023-02-08T09:25:07;83;69;
49708;PMS5003;35601;55.902;13.606;2023-02-08T09:27:32;77;68;
49708;PMS5003;35601;55.902;13.606;2023-02-08T09:29:58;78;65;
49708;PMS5003;35601;55.902;13.606;2023-02-08T09:32:23;75;63;
49708;PMS5003;35601;55.902;13.606;2023-02-08T09:34:49;84;62;
49708;PMS5003;35601;55.902;13.606;2023-02-08T09:37:14;78;66;
49708;PMS5003;35601;55.902;13.606;2023-02-08T09:39:39;72;65;
49708;PMS5003;35601;55.902;13.606;2023-02-08T09:42:10;81;70;
49708;PMS5003;35601;55.902;13.606;2023-02-08T09:44:31;75;64;
49708;PMS5003;35601;55.902;13.606;2023-02-08T09:46:57;76;61;
49708;PMS5003;35601;55.902;13.606;2023-02-08T09:49:22;71;61;
49708;PMS5003;35601;55.902;13.606;2023-02-08T09:51:49;89;64;
49708;PMS5003;35601;55.902;13.606;2023-02-08T09:54:14;86;66;
49708;PMS5003;35601;55.902;13.606;2023-02-08T09:56:39;84;60;
49708;PMS5003;35601;55.902;13.606;2023-02-08T09:59:03;78;67;
49708;PMS5003;35601;55.902;13.606;2023-02-08T10:01:30;74;58;
49708;PMS5003;35601;55.902;13.606;2023-02-08T10:03:55;76;65;
49708;PMS5003;35601;55.902;13.606;2023-02-08T10:06:19;78;62;
49708;PMS5003;35601;55.902;13.606;2023-02-08T10:08:46;74;57;
49708;PMS5003;35601;55.902;13.606;2023-02-08T10:13:41;65;58;
49708;PMS5003;35601;55.902;13.606;2023-02-08T10:16:02;67;56;
49708;PMS5003;35601;55.902;13.606;2023-02-08T10:18:29;66;57;
49708;PMS5003;35601;55.902;13.606;2023-02-08T10:20:56;72;61;
49708;PMS5003;35601;55.902;13.606;2023-02-08T10:23:21;63;50;
49708;PMS5003;35601;55.902;13.606;2023-02-08T10:25:45;60;52;
49708;PMS5003;35601;55.902;13.606;2023-02-08T10:28:15;67;53;
49708;PMS5003;35601;55.902;13.606;2023-02-08T10:30:35;68;53;
49708;PMS5003;35601;55.902;13.606;2023-02-08T10:33:00;68;55;
49708;PMS5003;35601;55.902;13.606;2023-02-08T10:35:26;58;47;
49708;PMS5003;35601;55.902;13.606;2023-02-08T10:37:50;60;52;
49708;PMS5003;35601;55.902;13.606;2023-02-08T10:40:29;59;52;
49708;PMS5003;35601;55.902;13.606;2023-02-08T10:42:41;53;46;
49708;PMS5003;35601;55.902;13.606;2023-02-08T10:45:07;63;51;
49708;PMS5003;35601;55.902;13.606;2023-02-08T10:47:35;60;52;
49708;PMS5003;35601;55.902;13.606;2023-02-08T10:49:58;58;47;
49708;PMS5003;35601;55.902;13.606;2023-02-08T10:52:23;48;40;
49708;PMS5003;35601;55.902;13.606;2023-02-08T10:54:48;49;43;
49708;PMS5003;35601;55.902;13.606;2023-02-08T10:57:15;54;43;
49708;PMS5003;35601;55.902;13.606;2023-02-08T10:59:45;54;46;
49708;PMS5003;35601;55.902;13.606;2023-02-08T11:02:07;50;38;
49708;PMS5003;35601;55.902;13.606;2023-02-08T11:04:30;52;37;
49708;PMS5003;35601;55.902;13.606;2023-02-08T11:06:56;44;39;
49708;PMS5003;35601;55.902;13.606;2023-02-08T11:09:23;37;28;
49708;PMS5003;35601;55.902;13.606;2023-02-08T11:11:47;31;30;
49708;PMS5003;35601;55.902;13.606;2023-02-08T11:14:14;43;36;
49708;PMS5003;35601;55.902;13.606;2023-02-08T11:16:37;40;31;
49708;PMS5003;35601;55.902;13.606;2023-02-08T11:19:03;39;36;
49708;PMS5003;35601;55.902;13.606;2023-02-08T11:21:29;37;33;
49708;PMS5003;35601;55.902;13.606;2023-02-08T11:23:54;41;35;
49708;PMS5003;35601;55.902;13.606;2023-02-08T11:26:20;35;30;
49708;PMS5003;35601;55.902;13.606;2023-02-08T11:28:44;36;27;
49708;PMS5003;35601;55.902;13.606;2023-02-08T11:31:14;40;33;
49708;PMS5003;35601;55.902;13.606;2023-02-08T11:33:35;35;33;
49708;PMS5003;35601;55.902;13.606;2023-02-08T11:36:02;41;33;
49708;PMS5003;35601;55.902;13.606;2023-02-08T11:38:25;30;28;
49708;PMS5003;35601;55.902;13.606;2023-02-08T11:40:50;30;28;
49708;PMS5003;35601;55.902;13.606;2023-02-08T11:43:19;39;34;
49708;PMS5003;35601;55.902;13.606;2023-02-08T11:45:42;40;33;
49708;PMS5003;35601;55.902;13.606;2023-02-08T11:50:33;35;29;
49708;PMS5003;35601;55.902;13.606;2023-02-08T11:52:58;39;34;
49708;PMS5003;35601;55.902;13.606;2023-02-08T11:55:24;32;28;
49708;PMS5003;35601;55.902;13.606;2023-02-08T11:57:52;30;26;
49708;PMS5003;35601;55.902;13.606;2023-02-08T12:00:17;27;24;
49708;PMS5003;35601;55.902;13.606;2023-02-08T12:02:39;21;18;
49708;PMS5003;35601;55.902;13.606;2023-02-08T12:05:08;25;21;
49708;PMS5003;35601;55.902;13.606;2023-02-08T12:07:32;21;19;
49708;PMS5003;35601;55.902;13.606;2023-02-08T12:12:22;24;22;
49708;PMS5003;35601;55.902;13.606;2023-02-08T12:14:49;23;21;
49708;PMS5003;35601;55.902;13.606;2023-02-08T12:22:05;33;20;
49708;PMS5003;35601;55.902;13.606;2023-02-08T12:24:29;29;24;
49708;PMS5003;35601;55.902;13.606;2023-02-08T12:26:58;28;22;
49708;PMS5003;35601;55.902;13.606;2023-02-08T12:29:23;25;22;
49708;PMS5003;35601;55.902;13.606;2023-02-08T12:31:51;26;18;
49708;PMS5003;35601;55.902;13.606;2023-02-08T12:34:13;27;21;
49708;PMS5003;35601;55.902;13.606;2023-02-08T12:36:39;26;23;
49708;PMS5003;35601;55.902;13.606;2023-02-08T12:39:07;24;18;
49708;PMS5003;35601;55.902;13.606;2023-02-08T12:41:29;24;18;
49708;PMS5003;35601;55.902;13.606;2023-02-08T12:43:54;19;17;
49708;PMS5003;35601;55.902;13.606;2023-02-08T12:46:23;21;17;
49708;PMS5003;35601;55.902;13.606;2023-02-08T12:48:47;23;19;
49708;PMS5003;35601;55.902;13.606;2023-02-08T12:51:11;23;19;
49708;PMS5003;35601;55.902;13.606;2023-02-08T12:53:36;21;18;
49708;PMS5003;35601;55.902;13.606;2023-02-08T12:56:01;26;22;
49708;PMS5003;35601;55.902;13.606;2023-02-08T12:58:27;28;21;
49708;PMS5003;35601;55.902;13.606;2023-02-08T13:00:52;30;24;
49708;PMS5003;35601;55.902;13.606;2023-02-08T13:03:19;27;25;
49708;PMS5003;35601;55.902;13.606;2023-02-08T13:05:43;25;18;
49708;PMS5003;35601;55.902;13.606;2023-02-08T13:08:21;29;23;
49708;PMS5003;35601;55.902;13.606;2023-02-08T13:10:35;31;23;
49708;PMS5003;35601;55.902;13.606;2023-02-08T13:13:00;31;24;
49708;PMS5003;35601;55.902;13.606;2023-02-08T13:15:26;31;25;
49708;PMS5003;35601;55.902;13.606;2023-02-08T13:17:51;27;22;
49708;PMS5003;35601;55.902;13.606;2023-02-08T13:20:21;31;27;
49708;PMS5003;35601;55.902;13.606;2023-02-08T13:22:41;22;20;
49708;PMS5003;35601;55.902;13.606;2023-02-08T13:25:12;22;22;
49708;PMS5003;35601;55.902;13.606;2023-02-08T13:27:32;23;23;
49708;PMS5003;35601;55.902;13.606;2023-02-08T13:29:57;24;20;
49708;PMS5003;35601;55.902;13.606;2023-02-08T13:32:24;21;21;
49708;PMS5003;35601;55.902;13.606;2023-02-08T13:34:49;25;24;
49708;PMS5003;35601;55.902;13.606;2023-02-08T13:37:18;26;24;
49708;PMS5003;35601;55.902;13.606;2023-02-08T13:39:40;26;23;
49708;PMS5003;35601;55.902;13.606;2023-02-08T13:42:05;23;20;
49708;PMS5003;35601;55.902;13.606;2023-02-08T13:44:32;29;24;
49708;PMS5003;35601;55.902;13.606;2023-02-08T13:46:56;29;25;
49708;PMS5003;35601;55.902;13.606;2023-02-08T13:51:50;23;22;
49708;PMS5003;35601;55.902;13.606;2023-02-08T13:54:13;31;25;
49708;PMS5003;35601;55.902;13.606;2023-02-08T13:56:39;20;19;
49708;PMS5003;35601;55.902;13.606;2023-02-08T13:59:04;28;26;
49708;PMS5003;35601;55.902;13.606;2023-02-08T14:01:30;20;19;
49708;PMS5003;35601;55.902;13.606;2023-02-08T14:06:20;30;25;
49708;PMS5003;35601;55.902;13.606;2023-02-08T14:08:49;31;27;
49708;PMS5003;35601;55.902;13.606;2023-02-08T14:11:12;23;20;
49708;PMS5003;35601;55.902;13.606;2023-02-08T14:13:37;25;23;
49708;PMS5003;35601;55.902;13.606;2023-02-08T14:18:27;25;21;
49708;PMS5003;35601;55.902;13.606;2023-02-08T14:20:56;33;25;
49708;PMS5003;35601;55.902;13.606;2023-02-08T14:23:20;24;19;
49708;PMS5003;35601;55.902;13.606;2023-02-08T14:25:45;18;18;
49708;PMS5003;35601;55.902;13.606;2023-02-08T14:30:36;22;20;
49708;PMS5003;35601;55.902;13.606;2023-02-08T14:33:08;21;21;
49708;PMS5003;35601;55.902;13.606;2023-02-08T14:35:26;21;19;
49708;PMS5003;35601;55.902;13.606;2023-02-08T14:50:00;21;19;
49708;PMS5003;35601;55.902;13.606;2023-02-08T14:52:24;15;15;
49708;PMS5003;35601;55.902;13.606;2023-02-08T14:54:52;15;14;
49708;PMS5003;35601;55.902;13.606;2023-02-08T14:57:18;20;16;
49708;PMS5003;35601;55.902;13.606;2023-02-08T14:59:40;21;16;
49708;PMS5003;35601;55.902;13.606;2023-02-08T15:02:09;20;17;
49708;PMS5003;35601;55.902;13.606;2023-02-08T15:04:31;25;24;
49708;PMS5003;35601;55.902;13.606;2023-02-08T15:09:22;19;18;
49708;PMS5003;35601;55.902;13.606;2023-02-08T15:11:48;33;23;
49708;PMS5003;35601;55.902;13.606;2023-02-08T15:14:15;25;18;
49708;PMS5003;35601;55.902;13.606;2023-02-08T15:16:39;26;21;
49708;PMS5003;35601;55.902;13.606;2023-02-08T15:19:03;24;20;
49708;PMS5003;35601;55.902;13.606;2023-02-08T15:21:29;21;18;
49708;PMS5003;35601;55.902;13.606;2023-02-08T15:23:57;21;18;
49708;PMS5003;35601;55.902;13.606;2023-02-08T15:26:19;16;15;
49708;PMS5003;35601;55.902;13.606;2023-02-08T15:28:44;25;24;
49708;PMS5003;35601;55.902;13.606;2023-02-08T15:31:12;29;23;
49708;PMS5003;35601;55.902;13.606;2023-02-08T15:33:36;24;21;
49708;PMS5003;35601;55.902;13.606;2023-02-08T15:36:00;38;29;
49708;PMS5003;35601;55.902;13.606;2023-02-08T15:38:25;32;23;
49708;PMS5003;35601;55.902;13.606;2023-02-08T15:40:59;38;28;
49708;PMS5003;35601;55.902;13.606;2023-02-08T15:43:16;39;31;
49708;PMS5003;35601;55.902;13.606;2023-02-08T15:45:41;35;28;
49708;PMS5003;35601;55.902;13.606;2023-02-08T15:48:07;32;30;
49708;PMS5003;35601;55.902;13.606;2023-02-08T15:50:33;35;30;
49708;PMS5003;35601;55.902;13.606;2023-02-08T15:52:59;38;29;
49708;PMS5003;35601;55.902;13.606;2023-02-08T15:55:24;32;21;
49708;PMS5003;35601;55.902;13.606;2023-02-08T15:57:53;30;28;
49708;PMS5003;35601;55.902;13.606;2023-02-08T16:00:16;48;37;
49708;PMS5003;35601;55.902;13.606;2023-02-08T16:02:40;37;32;
49708;PMS5003;35601;55.902;13.606;2023-02-08T16:05:10;42;36;
49708;PMS5003;35601;55.902;13.606;2023-02-08T16:07:34;45;31;
49708;PMS5003;35601;55.902;13.606;2023-02-08T16:09:57;48;40;
49708;PMS5003;35601;55.902;13.606;2023-02-08T16:12:23;47;36;
49708;PMS5003;35601;55.902;13.606;2023-02-08T16:14:48;49;44;
49708;PMS5003;35601;55.902;13.606;2023-02-08T16:19:39;50;39;
49708;PMS5003;35601;55.902;13.606;2023-02-08T16:24:30;41;34;
49708;PMS5003;35601;55.902;13.606;2023-02-08T16:26:58;49;41;
49708;PMS5003;35601;55.902;13.606;2023-02-08T16:29:22;43;38;
49708;PMS5003;35601;55.902;13.606;2023-02-08T16:31:47;50;37;
49708;PMS5003;35601;55.902;13.606;2023-02-08T16:34:13;48;40;
49708;PMS5003;35601;55.902;13.606;2023-02-08T16:36:39;45;36;
49708;PMS5003;35601;55.902;13.606;2023-02-08T16:41:45;44;36;